createdAt,value
2022-12-09T00:01:44.434Z,24.27
2022-12-09T00:04:48.376Z,24.90
2022-12-09T00:07:53.546Z,24.10
2022-12-09T00:10:57.207Z,24.17
2022-12-09T00:14:01.701Z,24.80
2022-12-09T00:17:05.558Z,22.77
2022-12-09T00:20:11.375Z,21.50
2022-12-09T00:23:17.177Z,20.80
2022-12-09T00:26:23.584Z,22.57
2022-12-09T00:29:27.128Z,22.73
2022-12-09T00:32:30.871Z,23.53
2022-12-09T00:35:34.822Z,21.83
2022-12-09T00:38:40.041Z,19.37
2022-12-09T00:41:43.634Z,23.43
2022-12-09T00:44:47.222Z,25.60
2022-12-09T00:47:51.102Z,20.57
2022-12-09T00:50:54.969Z,23.60
2022-12-09T00:54:00.103Z,20.80
2022-12-09T00:57:04.503Z,20.70
2022-12-09T01:00:10.889Z,21.07
2022-12-09T01:03:16.199Z,28.40
2022-12-09T01:06:23.854Z,23.90
2022-12-09T01:09:28.971Z,24.13
2022-12-09T01:12:34.957Z,19.27
2022-12-09T01:15:39.559Z,21.47
2022-12-09T01:18:43.409Z,18.03
2022-12-09T01:21:47.221Z,17.03
2022-12-09T01:24:52.477Z,19.67
2022-12-09T01:27:56.159Z,21.40
2022-12-09T01:31:08.147Z,17.80
2022-12-09T01:34:11.885Z,19.10
2022-12-09T01:37:16.239Z,17.53
2022-12-09T01:40:21.368Z,19.87
2022-12-09T01:43:25.139Z,17.67
2022-12-09T01:46:28.948Z,19.10
2022-12-09T01:49:43.324Z,20.73
2022-12-09T01:52:49.889Z,21.13
2022-12-09T01:55:58.679Z,17.30
2022-12-09T01:59:12.862Z,19.90
2022-12-09T02:02:20.429Z,20.57
2022-12-09T02:05:25.999Z,19.33
2022-12-09T02:08:29.841Z,17.37
2022-12-09T02:11:52.188Z,17.30
2022-12-09T02:15:04.687Z,18.13
2022-12-09T02:18:19.830Z,20.87
2022-12-09T02:21:32.478Z,21.37
2022-12-09T02:24:47.420Z,17.10
2022-12-09T02:28:25.902Z,20.97
2022-12-09T02:31:52.579Z,19.63
2022-12-09T02:35:04.954Z,23.67
2022-12-09T02:38:15.075Z,19.03
2022-12-09T02:41:25.011Z,17.33
2022-12-09T02:44:29.042Z,20.70
2022-12-09T02:47:37.637Z,17.60
2022-12-09T02:50:48.689Z,18.13
2022-12-09T02:54:00.358Z,20.63
2022-12-09T02:57:14.658Z,22.07
2022-12-09T03:00:19.211Z,21.33
2022-12-09T03:03:23.102Z,19.90
2022-12-09T03:06:37.340Z,18.20
2022-12-09T03:09:49.032Z,24.90
2022-12-09T03:13:03.845Z,23.93
2022-12-09T03:16:15.741Z,22.07
2022-12-09T03:19:27.251Z,21.93
2022-12-09T03:22:37.028Z,21.67
2022-12-09T03:25:47.249Z,24.93
2022-12-09T03:28:55.916Z,26.20
2022-12-09T03:32:01.123Z,23.63
2022-12-09T03:35:10.668Z,25.27
2022-12-09T03:38:22.282Z,26.80
2022-12-09T03:41:31.719Z,29.23
2022-12-09T03:44:43.233Z,27.57
2022-12-09T03:47:47.048Z,28.00
2022-12-09T03:50:59.533Z,26.47
2022-12-09T03:54:15.236Z,30.17
2022-12-09T03:57:21.953Z,28.00
2022-12-09T04:00:25.998Z,28.73
2022-12-09T04:03:30.201Z,28.13
2022-12-09T04:06:34.481Z,31.63
2022-12-09T04:09:39.673Z,31.97
2022-12-09T04:12:43.392Z,31.97
2022-12-09T04:15:46.995Z,29.47
2022-12-09T04:18:51.198Z,34.23
2022-12-09T04:21:55.065Z,27.77
2022-12-09T04:25:00.186Z,29.33
2022-12-09T04:28:04.190Z,32.27
2022-12-09T04:31:11.804Z,32.03
2022-12-09T04:34:15.574Z,32.73
2022-12-09T04:37:19.215Z,31.70
2022-12-09T04:40:24.866Z,32.27
2022-12-09T04:43:29.038Z,37.13
2022-12-09T04:46:33.236Z,28.57
2022-12-09T04:49:37.000Z,34.43
2022-12-09T04:52:40.966Z,30.13
2022-12-09T04:55:46.173Z,28.17
2022-12-09T04:58:51.857Z,33.53
2022-12-09T05:01:55.548Z,30.70
2022-12-09T05:05:01.640Z,27.53
2022-12-09T05:08:06.049Z,34.43
2022-12-09T05:11:12.259Z,33.73
2022-12-09T05:14:16.431Z,30.70
2022-12-09T05:17:20.371Z,30.03
2022-12-09T05:20:28.079Z,31.63
2022-12-09T05:23:31.922Z,29.40
2022-12-09T05:26:37.901Z,36.37
2022-12-09T05:29:42.488Z,29.70
2022-12-09T05:32:46.298Z,29.83
2022-12-09T05:35:52.983Z,30.47
2022-12-09T05:38:57.833Z,30.63
2022-12-09T05:42:03.144Z,31.87
2022-12-09T05:45:08.269Z,36.13
2022-12-09T05:48:12.573Z,35.70
2022-12-09T05:51:23.270Z,32.03
2022-12-09T05:54:28.062Z,34.77
2022-12-09T05:57:35.308Z,33.77
2022-12-09T06:00:39.753Z,33.90
2022-12-09T06:03:43.869Z,31.83
2022-12-09T06:06:48.087Z,31.67
2022-12-09T06:09:52.032Z,33.80
2022-12-09T06:12:58.372Z,37.77
2022-12-09T06:16:05.429Z,43.43
2022-12-09T06:19:12.993Z,35.13
2022-12-09T06:22:16.847Z,31.93
2022-12-09T06:25:21.019Z,35.70
2022-12-09T06:28:26.296Z,40.30
2022-12-09T06:31:31.013Z,33.50
2022-12-09T06:34:35.667Z,31.70
2022-12-09T06:37:39.728Z,30.50
2022-12-09T06:40:44.239Z,31.00
2022-12-09T06:43:49.668Z,30.17
2022-12-09T06:46:53.845Z,32.80
2022-12-09T06:50:07.214Z,28.67
2022-12-09T06:53:11.893Z,30.83
2022-12-09T06:56:16.975Z,29.47
2022-12-09T06:59:22.297Z,32.10
2022-12-09T07:02:28.061Z,31.60
2022-12-09T07:05:35.348Z,28.97
2022-12-09T07:08:39.830Z,34.10
2022-12-09T07:11:48.288Z,30.03
2022-12-09T07:14:54.155Z,39.93
2022-12-09T07:17:57.883Z,34.73
2022-12-09T07:21:09.986Z,38.83
2022-12-09T07:24:14.606Z,38.73
2022-12-09T07:27:19.806Z,37.90
2022-12-09T07:30:25.119Z,35.57
2022-12-09T07:33:29.595Z,36.57
2022-12-09T07:36:36.616Z,34.10
2022-12-09T07:39:40.636Z,37.67
2022-12-09T07:42:44.672Z,46.47
2022-12-09T07:45:50.745Z,39.37
2022-12-09T07:48:56.191Z,32.17
2022-12-09T07:52:00.126Z,44.33
2022-12-09T07:55:04.890Z,35.33
2022-12-09T07:58:09.487Z,37.20
2022-12-09T08:01:17.354Z,31.67
2022-12-09T08:04:21.724Z,31.43
2022-12-09T08:07:25.727Z,32.67
2022-12-09T08:10:30.839Z,58.03
2022-12-09T08:13:34.728Z,40.60
2022-12-09T08:16:40.791Z,44.97
2022-12-09T08:19:45.116Z,41.63
2022-12-09T08:22:49.315Z,41.33
2022-12-09T08:25:55.210Z,43.90
2022-12-09T08:28:59.326Z,51.17
2022-12-09T08:32:06.138Z,48.50
2022-12-09T08:35:15.238Z,56.50
2022-12-09T08:38:19.196Z,51.30
2022-12-09T08:41:36.316Z,57.30
2022-12-09T08:44:41.639Z,52.47
2022-12-09T08:47:47.793Z,53.37
2022-12-09T08:50:51.749Z,47.73
2022-12-09T08:53:55.894Z,45.93
2022-12-09T08:57:00.436Z,51.80
2022-12-09T09:00:06.367Z,42.20
2022-12-09T09:03:12.170Z,44.13
2022-12-09T09:06:17.291Z,39.87
2022-12-09T09:09:24.341Z,37.33
2022-12-09T09:12:28.661Z,36.17
2022-12-09T09:15:33.555Z,35.87
2022-12-09T09:18:39.365Z,32.87
2022-12-09T09:21:43.797Z,38.67
2022-12-09T09:24:48.401Z,38.57
2022-12-09T09:27:52.351Z,40.23
2022-12-09T09:31:01.798Z,32.60
2022-12-09T09:34:07.498Z,35.37
2022-12-09T09:37:11.444Z,35.07
2022-12-09T09:40:16.303Z,36.83
2022-12-09T09:43:27.859Z,38.40
2022-12-09T09:46:44.220Z,31.43
2022-12-09T09:49:59.620Z,36.47
2022-12-09T09:53:16.874Z,35.27
2022-12-09T09:56:29.442Z,33.77
2022-12-09T09:59:46.165Z,39.43
2022-12-09T10:03:01.260Z,36.00
2022-12-09T10:06:23.184Z,40.80
2022-12-09T10:09:42.686Z,44.13
2022-12-09T10:13:08.311Z,42.00
2022-12-09T10:16:19.490Z,44.90
2022-12-09T10:19:34.535Z,48.93
2022-12-09T10:22:46.760Z,47.33
2022-12-09T10:25:55.984Z,45.23
2022-12-09T10:29:15.462Z,52.63
2022-12-09T10:32:23.257Z,58.13
2022-12-09T10:35:30.827Z,61.10
2022-12-09T10:38:43.243Z,59.73
2022-12-09T10:42:11.285Z,63.57
2022-12-09T10:46:15.205Z,61.37
2022-12-09T10:49:04.047Z,61.70
2022-12-09T10:52:08.528Z,64.53
2022-12-09T10:55:31.519Z,50.13
2022-12-09T10:58:35.310Z,62.73
2022-12-09T11:01:51.690Z,54.47
2022-12-09T11:04:56.144Z,60.53
2022-12-09T11:08:00.989Z,62.27
2022-12-09T11:11:06.911Z,56.53
2022-12-09T11:14:28.637Z,60.57
2022-12-09T11:17:36.211Z,48.37
2022-12-09T11:20:40.982Z,51.63
2022-12-09T11:24:02.536Z,52.10
2022-12-09T11:27:28.131Z,54.53
2022-12-09T11:30:36.477Z,48.50
2022-12-09T11:33:52.126Z,50.40
2022-12-09T11:37:02.606Z,48.53
2022-12-09T11:40:16.666Z,50.87
2022-12-09T11:43:21.769Z,64.93
2022-12-09T11:46:30.177Z,57.63
2022-12-09T11:49:44.598Z,49.60
2022-12-09T11:53:05.935Z,51.30
2022-12-09T11:56:18.553Z,51.07
2022-12-09T11:59:36.365Z,56.43
2022-12-09T12:02:49.663Z,48.63
2022-12-09T12:05:56.084Z,54.27
2022-12-09T12:09:08.078Z,58.50
2022-12-09T12:12:24.239Z,56.57
2022-12-09T12:15:40.623Z,61.10
2022-12-09T12:18:53.115Z,60.57
2022-12-09T12:22:34.691Z,62.83
2022-12-09T12:25:53.301Z,62.60
2022-12-09T12:29:29.143Z,64.07
2022-12-09T12:33:53.114Z,60.53
2022-12-09T12:36:40.986Z,55.23
2022-12-09T12:39:57.661Z,58.57
2022-12-09T12:43:37.704Z,67.80
2022-12-09T12:47:04.594Z,58.47
2022-12-09T12:50:48.403Z,60.97
2022-12-09T12:54:00.440Z,61.87
2022-12-09T12:57:17.361Z,57.73
2022-12-09T13:00:25.447Z,55.80
2022-12-09T13:03:39.921Z,60.00
2022-12-09T13:06:51.736Z,54.30
2022-12-09T13:10:03.769Z,61.50
2022-12-09T13:13:18.804Z,57.20
2022-12-09T13:16:30.564Z,62.63
2022-12-09T13:19:43.024Z,63.63
2022-12-09T13:22:58.929Z,54.13
2022-12-09T13:26:25.273Z,53.70
2022-12-09T13:29:43.824Z,52.93
2022-12-09T13:33:22.785Z,60.27
2022-12-09T13:36:38.556Z,57.93
2022-12-09T13:39:59.753Z,58.47
2022-12-09T13:43:22.726Z,57.40
2022-12-09T13:46:29.264Z,56.97
2022-12-09T13:49:41.014Z,50.60
2022-12-09T13:52:51.466Z,53.50
2022-12-09T13:56:00.194Z,54.17
2022-12-09T13:59:32.802Z,54.43
2022-12-09T14:02:43.915Z,53.07
2022-12-09T14:05:59.578Z,54.73
2022-12-09T14:09:19.870Z,52.87
2022-12-09T14:13:18.849Z,50.67
2022-12-09T14:16:36.059Z,53.90
2022-12-09T14:19:56.458Z,51.93
2022-12-09T14:23:20.387Z,53.53
2022-12-09T14:26:36.006Z,51.00
2022-12-09T14:29:57.812Z,51.93
2022-12-09T14:33:02.880Z,51.63
2022-12-09T14:36:28.053Z,51.33
2022-12-09T14:39:44.916Z,45.90
2022-12-09T14:42:56.731Z,50.83
2022-12-09T14:46:05.059Z,50.00
2022-12-09T14:49:18.983Z,55.07
2022-12-09T14:52:30.259Z,52.93
2022-12-09T14:55:41.419Z,47.23
2022-12-09T14:58:50.108Z,53.10
2022-12-09T15:01:57.950Z,49.90
2022-12-09T15:05:03.785Z,46.30
2022-12-09T15:08:07.749Z,49.70
2022-12-09T15:11:18.032Z,50.40
2022-12-09T15:14:28.302Z,49.60
2022-12-09T15:17:39.126Z,48.07
2022-12-09T15:20:49.367Z,53.07
2022-12-09T15:23:53.394Z,47.47
2022-12-09T15:26:59.977Z,45.20
2022-12-09T15:30:23.261Z,44.03
2022-12-09T15:33:32.029Z,39.83
2022-12-09T15:36:41.125Z,45.97
2022-12-09T15:39:52.243Z,39.90
2022-12-09T15:43:00.907Z,50.67
2022-12-09T15:46:05.890Z,44.87
2022-12-09T15:49:15.184Z,44.37
2022-12-09T15:52:24.044Z,46.67
2022-12-09T15:55:36.766Z,47.77
2022-12-09T15:58:46.325Z,49.40
2022-12-09T16:01:54.135Z,45.80
2022-12-09T16:05:04.236Z,45.33
2022-12-09T16:08:07.979Z,43.50
2022-12-09T16:11:13.399Z,50.93
2022-12-09T16:14:19.611Z,44.40
2022-12-09T16:17:27.093Z,53.27
2022-12-09T16:20:39.178Z,47.63
2022-12-09T16:23:49.437Z,48.07
2022-12-09T16:26:56.493Z,48.13
2022-12-09T16:30:12.000Z,42.30
2022-12-09T16:33:20.212Z,46.43
2022-12-09T16:36:30.559Z,47.90
2022-12-09T16:39:38.161Z,43.60
2022-12-09T16:42:42.032Z,46.63
2022-12-09T16:45:51.057Z,47.20
2022-12-09T16:48:56.452Z,50.63
2022-12-09T16:52:03.522Z,49.13
2022-12-09T16:55:19.919Z,48.53
2022-12-09T16:58:24.673Z,50.20
2022-12-09T17:01:33.782Z,50.70
2022-12-09T17:04:38.904Z,50.40
2022-12-09T17:07:44.420Z,50.40
2022-12-09T17:10:49.095Z,48.50
2022-12-09T17:13:53.666Z,54.53
2022-12-09T17:16:57.513Z,50.73
2022-12-09T17:20:01.454Z,48.23
2022-12-09T17:23:06.979Z,48.13
2022-12-09T17:26:14.858Z,60.70
2022-12-09T17:29:18.818Z,50.93
2022-12-09T17:32:24.283Z,47.97
2022-12-09T17:35:27.985Z,59.80
2022-12-09T17:38:33.207Z,52.23
2022-12-09T17:41:37.072Z,53.40
2022-12-09T17:44:42.140Z,64.17
2022-12-09T17:47:46.386Z,64.47
2022-12-09T17:50:50.897Z,62.77
2022-12-09T17:53:56.695Z,57.77
2022-12-09T17:57:01.384Z,50.23
2022-12-09T18:00:07.832Z,58.17
2022-12-09T18:03:17.963Z,65.50
2022-12-09T18:06:26.151Z,53.80
2022-12-09T18:09:31.250Z,58.70
2022-12-09T18:12:34.950Z,48.37
2022-12-09T18:15:40.572Z,53.63
2022-12-09T18:18:44.835Z,58.00
2022-12-09T18:21:49.690Z,52.63
2022-12-09T18:24:54.773Z,52.00
2022-12-09T18:27:58.496Z,54.93
2022-12-09T18:31:06.726Z,58.73
2022-12-09T18:34:10.468Z,56.90
2022-12-09T18:37:14.149Z,56.57
2022-12-09T18:40:23.834Z,54.90
2022-12-09T18:43:28.316Z,74.93
2022-12-09T18:46:35.484Z,99.90
2022-12-09T18:49:39.482Z,56.63
2022-12-09T18:52:45.372Z,60.07
2022-12-09T18:55:50.579Z,55.37
2022-12-09T18:59:10.056Z,58.50
2022-12-09T19:02:15.134Z,80.17
2022-12-09T19:05:19.574Z,59.53
2022-12-09T19:08:23.452Z,58.77
2022-12-09T19:11:32.760Z,59.00
2022-12-09T19:14:40.759Z,61.17
2022-12-09T19:17:46.169Z,53.90
2022-12-09T19:20:50.076Z,63.57
2022-12-09T19:24:11.179Z,50.93
2022-12-09T19:27:19.100Z,48.33
2022-12-09T19:30:23.003Z,54.70
2022-12-09T19:33:27.098Z,52.13
2022-12-09T19:36:34.364Z,46.53
2022-12-09T19:39:42.138Z,48.40
2022-12-09T19:42:47.480Z,49.97
2022-12-09T19:45:51.343Z,55.37
2022-12-09T19:48:56.546Z,44.90
2022-12-09T19:52:00.375Z,51.60
2022-12-09T19:55:04.126Z,52.50
2022-12-09T19:58:09.454Z,46.70
2022-12-09T20:01:16.788Z,49.40
2022-12-09T20:04:48.272Z,53.90
2022-12-09T20:07:49.306Z,63.23
2022-12-09T20:10:53.348Z,45.60
2022-12-09T20:13:59.864Z,46.67
2022-12-09T20:17:03.515Z,49.60
2022-12-09T20:20:10.710Z,47.47
2022-12-09T20:23:15.876Z,60.57
2022-12-09T20:26:24.262Z,91.60
2022-12-09T20:29:34.070Z,59.47
2022-12-09T20:32:40.908Z,59.53
2022-12-09T20:35:44.602Z,57.10
2022-12-09T20:38:50.767Z,45.87
2022-12-09T20:41:54.650Z,57.03
2022-12-09T20:44:59.721Z,50.27
2022-12-09T20:48:03.335Z,51.23
2022-12-09T20:51:09.103Z,53.17
2022-12-09T20:54:18.777Z,46.63
2022-12-09T20:57:22.597Z,45.03
2022-12-09T21:00:27.670Z,51.13
2022-12-09T21:03:31.573Z,50.97
2022-12-09T21:06:38.332Z,48.03
2022-12-09T21:09:42.063Z,46.73
2022-12-09T21:12:46.070Z,47.70
2022-12-09T21:15:51.115Z,43.33
2022-12-09T21:18:57.907Z,48.37
2022-12-09T21:22:01.649Z,39.67
2022-12-09T21:25:05.786Z,40.57
2022-12-09T21:28:09.382Z,43.73
2022-12-09T21:31:17.205Z,46.20
2022-12-09T21:34:21.826Z,46.90
2022-12-09T21:37:25.860Z,43.20
2022-12-09T21:40:29.821Z,40.83
2022-12-09T21:43:34.295Z,37.57
2022-12-09T21:46:39.954Z,40.87
2022-12-09T21:49:43.533Z,39.73
2022-12-09T21:52:47.163Z,41.00
2022-12-09T21:55:51.560Z,42.90
2022-12-09T21:58:57.573Z,41.63
2022-12-09T22:02:02.556Z,42.73
2022-12-09T22:05:07.645Z,35.67
2022-12-09T22:08:11.229Z,37.87
2022-12-09T22:11:18.456Z,39.33
2022-12-09T22:14:22.140Z,39.63
2022-12-09T22:17:27.146Z,39.07
2022-12-09T22:23:55.413Z,40.50
2022-12-09T22:26:59.274Z,36.03
2022-12-09T22:30:03.285Z,40.10
2022-12-09T22:33:08.263Z,37.70
2022-12-09T22:36:14.032Z,40.67
2022-12-09T22:39:22.220Z,39.40
2022-12-09T22:42:25.889Z,40.53
2022-12-09T22:45:29.481Z,41.97
2022-12-09T22:48:35.907Z,45.17
2022-12-09T22:51:39.867Z,42.23
2022-12-09T22:54:43.644Z,44.50
2022-12-09T22:57:47.414Z,43.80
2022-12-09T23:00:51.180Z,44.80
2022-12-09T23:03:57.954Z,39.47
2022-12-09T23:07:01.714Z,44.03
2022-12-09T23:10:06.882Z,54.73
2022-12-09T23:13:11.146Z,44.27
2022-12-09T23:16:18.498Z,50.20
2022-12-09T23:19:23.682Z,45.13
2022-12-09T23:22:27.231Z,45.33
2022-12-09T23:25:31.045Z,43.60
2022-12-09T23:28:38.222Z,48.10
2022-12-09T23:31:43.163Z,52.20
2022-12-09T23:34:48.194Z,45.63
2022-12-09T23:37:51.928Z,46.53
2022-12-09T23:40:55.582Z,45.90
2022-12-09T23:43:59.735Z,45.57
2022-12-09T23:47:03.324Z,45.97
2022-12-09T23:50:09.506Z,48.07
2022-12-09T23:53:13.314Z,48.70
2022-12-09T23:56:20.387Z,47.27
2022-12-09T23:59:24.791Z,50.27
